Time;durP1;ratioP1;P1;durP2;ratioP2;P2;SDS_P1;SDS_P2;PMS_P1;PMS_P2;Temp;Humidity;BMP_temperature;BMP_pressure;BME280_temperature;BME280_humidity;BME280_pressure;Samples;Min_cycle;Max_cycle;Signal;HPM_P1;HPM_P2
2022/06/14 00:03:14;;;;;;;4.18;1.70;;;20.70;99.90;;;;;;5099584;28;20471;-74
2022/06/14 00:05:43;;;;;;;3.10;1.80;;;20.70;99.90;;;;;;5109016;28;20043;-74
2022/06/14 00:08:11;;;;;;;3.92;1.85;;;20.70;99.90;;;;;;5081241;28;20102;-74
2022/06/14 00:10:38;;;;;;;2.55;1.67;;;20.70;99.90;;;;;;5106308;28;20463;-74
2022/06/14 00:13:06;;;;;;;2.85;1.77;;;20.80;99.90;;;;;;5083307;28;20101;-74
2022/06/14 00:15:33;;;;;;;7.35;1.90;;;20.80;99.90;;;;;;5112418;28;20116;-75
2022/06/14 00:18:00;;;;;;;2.85;1.80;;;20.80;99.90;;;;;;5082508;28;20097;-74
2022/06/14 00:20:28;;;;;;;4.53;2.00;;;20.90;99.90;;;;;;5116441;28;20127;-74
2022/06/14 00:22:56;;;;;;;2.90;1.80;;;20.90;99.90;;;;;;5106157;28;20044;-74
2022/06/14 00:25:27;;;;;;;5.32;1.95;;;20.90;99.90;;;;;;5093604;28;20048;-74
2022/06/14 00:27:54;;;;;;;3.58;1.92;;;20.90;99.90;;;;;;5082609;28;20072;-74
2022/06/14 00:30:24;;;;;;;3.42;2.05;;;20.90;99.90;;;;;;5092624;28;20046;-74
2022/06/14 00:32:52;;;;;;;3.70;2.00;;;20.90;99.90;;;;;;5077330;28;20056;-74
2022/06/14 00:35:19;;;;;;;4.00;2.30;;;20.90;99.90;;;;;;5107866;28;20084;-73
2022/06/14 00:37:47;;;;;;;3.60;1.85;;;20.90;99.90;;;;;;5083548;28;20048;-73
2022/06/14 00:40:19;;;;;;;5.00;2.10;;;20.90;99.90;;;;;;5105362;28;20040;-74
2022/06/14 00:42:46;;;;;;;5.15;2.53;;;20.90;99.90;;;;;;5115505;28;20043;-74
2022/06/14 00:45:48;;;;;;;4.35;2.42;;;20.90;99.90;;;;;;5115741;28;20085;-74
2022/06/14 00:48:19;;;;;;;6.25;2.00;;;20.80;99.90;;;;;;5107619;28;20088;-74
2022/06/14 00:50:50;;;;;;;4.90;2.10;;;20.80;99.90;;;;;;5115674;28;20115;-74
2022/06/14 00:53:21;;;;;;;4.00;1.75;;;20.80;99.90;;;;;;5115061;28;20089;-74
2022/06/14 00:55:53;;;;;;;3.80;1.75;;;20.80;99.90;;;;;;5115434;28;20036;-74
2022/06/14 00:58:26;;;;;;;4.13;1.65;;;20.80;99.90;;;;;;5108764;28;20223;-74
2022/06/14 01:00:57;;;;;;;3.47;1.83;;;20.70;99.90;;;;;;5094717;28;20147;-74
2022/06/14 01:03:28;;;;;;;7.25;1.63;;;20.80;99.90;;;;;;5094510;28;20102;-74
2022/06/14 01:06:06;;;;;;;5.25;2.28;;;20.80;99.90;;;;;;5095178;28;20552;-74
2022/06/14 01:08:37;;;;;;;13.90;8.70;;;20.80;99.90;;;;;;5094955;28;20138;-74
2022/06/14 01:11:09;;;;;;;4.38;2.10;;;20.80;99.90;;;;;;5094816;28;20044;-75
2022/06/14 01:13:38;;;;;;;4.65;1.98;;;20.80;99.90;;;;;;5094374;28;20089;-74
2022/06/14 01:16:06;;;;;;;6.50;2.38;;;20.80;99.90;;;;;;5103405;28;20487;-74
2022/06/14 01:18:35;;;;;;;6.93;2.20;;;20.80;99.90;;;;;;5112936;28;20051;-74
2022/06/14 01:21:02;;;;;;;8.15;3.15;;;20.80;99.90;;;;;;5114872;28;20040;-74
2022/06/14 01:23:51;;;;;;;8.93;3.88;;;20.80;99.90;;;;;;5114388;28;20036;-74
2022/06/14 01:26:23;;;;;;;4.70;2.30;;;20.80;99.90;;;;;;5096329;28;20075;-74
2022/06/14 01:28:54;;;;;;;6.45;2.92;;;20.60;99.90;;;;;;5079755;28;20067;-74
2022/06/14 01:31:24;;;;;;;6.63;2.92;;;20.50;99.90;;;;;;5093982;28;20419;-74
2022/06/14 01:33:56;;;;;;;6.95;2.20;;;20.50;99.90;;;;;;5110885;28;20122;-74
2022/06/14 01:36:27;;;;;;;4.65;2.58;;;20.40;99.90;;;;;;5114531;28;20097;-74
2022/06/14 01:38:58;;;;;;;6.75;2.80;;;20.30;99.90;;;;;;5114556;28;20043;-74
2022/06/14 01:41:32;;;;;;;3.92;2.70;;;20.20;99.90;;;;;;5114489;28;20036;-74
2022/06/14 01:44:21;;;;;;;5.65;2.92;;;20.20;99.90;;;;;;5114066;28;20472;-74
2022/06/14 01:47:00;;;;;;;6.78;3.35;;;20.10;99.90;;;;;;5112675;28;20047;-75
2022/06/14 01:52:31;;;;;;;7.20;3.47;;;20.10;99.90;;;;;;5093650;28;20035;-74
2022/06/14 01:55:14;;;;;;;7.88;3.45;;;20.20;99.90;;;;;;5093629;28;20093;-74
2022/06/14 01:57:51;;;;;;;11.32;3.65;;;20.10;99.90;;;;;;5093705;28;20054;-74
2022/06/14 02:00:25;;;;;;;8.80;3.00;;;20.10;99.90;;;;;;5093595;28;20048;-74
2022/06/14 02:04:37;;;;;;;4.80;2.80;;;20.10;99.90;;;;;;5101995;28;20043;-74
2022/06/14 02:05:50;;;;;;;4.35;3.00;;;20.00;99.90;;;;;;5114077;28;20042;-74
2022/06/14 02:08:22;;;;;;;5.50;2.90;;;20.00;99.90;;;;;;5114037;28;20043;-74
2022/06/14 02:10:59;;;;;;;4.10;2.60;;;20.00;99.90;;;;;;5114234;28;20051;-74
2022/06/14 02:13:33;;;;;;;4.13;2.30;;;19.90;99.90;;;;;;5113825;28;20092;-74
2022/06/14 02:16:05;;;;;;;5.18;2.70;;;19.90;99.90;;;;;;5102965;28;20043;-74
2022/06/14 02:18:40;;;;;;;6.93;2.90;;;19.90;99.90;;;;;;5095402;28;20093;-74
2022/06/14 02:21:12;;;;;;;4.15;2.53;;;19.80;99.90;;;;;;5093559;28;20035;-75
2022/06/14 02:23:43;;;;;;;5.60;2.78;;;19.80;99.90;;;;;;5102740;28;20067;-74
2022/06/14 02:26:18;;;;;;;5.72;2.30;;;19.80;99.90;;;;;;5101392;28;20103;-74
2022/06/14 02:28:51;;;;;;;4.47;2.30;;;19.70;99.90;;;;;;5100975;28;20047;-74
2022/06/14 02:31:22;;;;;;;7.07;3.17;;;19.60;99.90;;;;;;5090812;28;20079;-74
2022/06/14 02:33:55;;;;;;;4.93;2.47;;;19.70;99.90;;;;;;5093106;28;20052;-74
2022/06/14 02:36:26;;;;;;;3.88;2.22;;;19.60;99.90;;;;;;5093391;28;20043;-74
2022/06/14 02:38:57;;;;;;;5.72;2.63;;;19.70;99.90;;;;;;5093158;28;20068;-74
2022/06/14 02:41:33;;;;;;;7.35;2.67;;;19.60;99.90;;;;;;5093153;28;20119;-74
2022/06/14 02:44:06;;;;;;;4.80;2.33;;;19.50;99.90;;;;;;5080158;28;20051;-74
2022/06/14 02:46:37;;;;;;;3.67;1.98;;;19.50;99.90;;;;;;5113384;22;20093;-75
2022/06/14 02:49:13;;;;;;;5.10;2.47;;;19.40;99.90;;;;;;5104407;28;20097;-75
2022/06/14 02:51:43;;;;;;;;;;;19.40;99.90;;;;;;5102706;28;20448;-75
2022/06/14 02:54:16;;;;;;;5.75;2.25;;;19.40;99.90;;;;;;5095217;28;19930;-75
2022/06/14 02:56:49;;;;;;;4.72;2.08;;;19.40;99.90;;;;;;5074666;28;20075;-76
2022/06/14 02:59:22;;;;;;;4.80;2.40;;;19.30;99.90;;;;;;5089764;28;20040;-74
2022/06/14 03:01:55;;;;;;;4.97;2.00;;;19.30;99.90;;;;;;5093721;28;20478;-76
2022/06/14 03:04:26;;;;;;;2.33;1.67;;;19.30;99.90;;;;;;5093385;28;20064;-75
2022/06/14 03:07:00;;;;;;;4.22;1.83;;;19.20;99.90;;;;;;5093528;28;20071;-76
2022/06/14 03:09:31;;;;;;;5.90;2.03;;;19.20;99.90;;;;;;5093088;28;20036;-75
2022/06/14 03:12:11;;;;;;;6.47;2.42;;;19.20;99.90;;;;;;5106295;28;20561;-76
2022/06/14 03:14:50;;;;;;;7.15;3.60;;;19.10;99.90;;;;;;5113189;28;20071;-75
2022/06/14 03:17:23;;;;;;;3.45;1.88;;;19.10;99.90;;;;;;5113409;28;20490;-75
2022/06/14 03:20:04;;;;;;;4.10;1.75;;;19.10;99.90;;;;;;5113254;28;20089;-75
2022/06/14 03:22:42;;;;;;;4.55;1.90;;;18.90;99.90;;;;;;5101175;28;20208;-75
2022/06/14 03:25:18;;;;;;;6.45;1.67;;;18.90;99.90;;;;;;5092983;28;20040;-75
2022/06/14 03:27:53;;;;;;;4.13;1.90;;;18.80;99.90;;;;;;5087567;28;20090;-76
2022/06/14 03:30:26;;;;;;;3.63;1.95;;;18.80;99.90;;;;;;5074427;28;20110;-76
2022/06/14 03:33:00;;;;;;;8.02;2.15;;;18.80;99.90;;;;;;5072909;28;20473;-76
2022/06/14 03:35:31;;;;;;;4.53;2.05;;;18.80;99.90;;;;;;5072730;28;20385;-76
2022/06/14 03:38:03;;;;;;;4.45;1.88;;;18.60;99.90;;;;;;5109007;28;20039;-76
2022/06/14 03:40:30;;;;;;;5.07;1.98;;;18.50;99.90;;;;;;5116642;28;20069;-76
2022/06/14 03:43:01;;;;;;;4.35;1.92;;;18.50;99.90;;;;;;5116499;28;20043;-75
2022/06/14 03:45:36;;;;;;;5.10;2.10;;;18.50;99.90;;;;;;5094932;28;20143;-75
2022/06/14 03:48:06;;;;;;;7.03;2.30;;;18.40;99.90;;;;;;5095210;28;20036;-74
2022/06/14 03:50:43;;;;;;;7.40;2.22;;;18.40;99.90;;;;;;5096618;28;20048;-75
2022/06/14 03:53:26;;;;;;;4.40;1.90;;;18.40;99.90;;;;;;5096159;28;20061;-75
2022/06/14 03:56:09;;;;;;;6.57;1.98;;;18.40;99.90;;;;;;5096222;28;20093;-75
2022/06/14 03:58:59;;;;;;;4.50;2.92;;;18.30;99.90;;;;;;5096176;28;20093;-75
2022/06/14 04:01:29;;;;;;;4.25;2.00;;;18.30;99.90;;;;;;5096616;28;20529;-74
2022/06/14 04:04:10;;;;;;;5.45;2.05;;;18.30;99.90;;;;;;5081156;28;20052;-73
2022/06/14 04:06:47;;;;;;;7.20;2.35;;;18.20;99.90;;;;;;5076096;28;20040;-75
2022/06/14 04:09:37;;;;;;;5.75;2.30;;;18.10;99.90;;;;;;5078946;28;20041;-75
2022/06/14 04:12:13;;;;;;;10.50;2.25;;;18.10;99.90;;;;;;5067229;28;20185;-74
2022/06/14 04:14:50;;;;;;;8.02;2.28;;;18.00;99.90;;;;;;5068726;28;20140;-75
2022/06/14 04:17:23;;;;;;;7.10;2.30;;;18.00;99.90;;;;;;5081093;28;20094;-76
2022/06/14 04:20:09;;;;;;;7.30;2.25;;;18.00;99.90;;;;;;5082331;28;20063;-75
2022/06/14 04:22:44;;;;;;;4.67;2.30;;;17.90;99.90;;;;;;5079767;28;20167;-74
2022/06/14 04:25:19;;;;;;;7.65;2.42;;;17.90;99.90;;;;;;5069114;28;20104;-75
2022/06/14 04:27:52;;;;;;;7.20;2.13;;;17.90;99.90;;;;;;5064493;28;20128;-75
2022/06/14 04:30:29;;;;;;;8.13;2.67;;;17.90;99.90;;;;;;5077001;28;20506;-75
2022/06/14 04:33:03;;;;;;;15.55;3.35;;;17.90;99.90;;;;;;5078530;28;20050;-77
2022/06/14 04:35:37;;;;;;;13.95;2.88;;;17.90;99.90;;;;;;5075437;28;20036;-74
2022/06/14 04:38:08;;;;;;;7.32;3.00;;;17.90;99.90;;;;;;5072065;28;20044;-75
2022/06/14 04:40:40;;;;;;;6.43;2.55;;;18.00;99.90;;;;;;5075954;28;20041;-76
2022/06/14 04:43:10;;;;;;;4.22;2.28;;;18.00;99.90;;;;;;5075829;28;20043;-74
2022/06/14 04:45:43;;;;;;;6.22;2.50;;;17.90;99.90;;;;;;5084516;28;20055;-74
2022/06/14 04:48:14;;;;;;;5.65;2.80;;;17.90;99.90;;;;;;5096551;28;20070;-74
2022/06/14 04:50:46;;;;;;;4.70;2.05;;;17.90;99.90;;;;;;5079167;28;20048;-75
2022/06/14 04:53:18;;;;;;;4.70;2.40;;;17.90;99.90;;;;;;5098369;28;20052;-74
2022/06/14 04:55:51;;;;;;;8.50;3.20;;;17.90;99.90;;;;;;5115738;28;20040;-75
2022/06/14 04:58:22;;;;;;;11.23;4.03;;;17.90;99.90;;;;;;5098642;28;20097;-75
2022/06/14 05:00:57;;;;;;;6.85;2.60;;;17.90;99.90;;;;;;5098246;28;20052;-73
2022/06/14 05:03:28;;;;;;;6.35;3.20;;;18.00;99.90;;;;;;5104487;28;20143;-75
2022/06/14 05:06:02;;;;;;;9.13;3.50;;;18.10;99.90;;;;;;5095131;28;20067;-76
2022/06/14 05:08:35;;;;;;;7.82;3.08;;;18.20;99.90;;;;;;5095503;28;20040;-76
2022/06/14 05:11:11;;;;;;;17.65;5.07;;;18.20;99.90;;;;;;5094718;28;20083;-74
2022/06/14 05:13:48;;;;;;;15.77;4.10;;;18.30;99.90;;;;;;5099311;28;20039;-74
2022/06/14 05:16:20;;;;;;;8.00;2.78;;;18.30;99.90;;;;;;5114067;28;20110;-73
2022/06/14 05:18:53;;;;;;;6.75;3.40;;;18.30;99.90;;;;;;5113064;28;20048;-75
2022/06/14 05:21:25;;;;;;;6.45;3.20;;;18.30;99.90;;;;;;5113149;28;20043;-75
2022/06/14 05:23:56;;;;;;;6.78;3.17;;;18.30;99.90;;;;;;5112988;28;20097;-75
2022/06/14 05:26:33;;;;;;;8.98;2.92;;;18.30;99.90;;;;;;5119056;28;20125;-72
2022/06/14 05:29:13;;;;;;;10.20;3.45;;;18.30;99.90;;;;;;5120071;28;20050;-74
2022/06/14 05:31:48;;;;;;;7.10;3.60;;;18.20;99.90;;;;;;5118172;28;20039;-74
2022/06/14 05:34:23;;;;;;;8.82;3.15;;;18.20;99.90;;;;;;5095329;28;20048;-75
2022/06/14 05:36:58;;;;;;;10.43;5.80;;;18.30;99.90;;;;;;5095136;28;20040;-74
2022/06/14 05:39:32;;;;;;;6.65;4.07;;;18.40;99.90;;;;;;5094403;28;20051;-75
2022/06/14 05:42:05;;;;;;;11.35;4.75;;;18.40;99.90;;;;;;5086171;28;20048;-74
2022/06/14 05:44:39;;;;;;;9.32;3.90;;;18.40;99.90;;;;;;5091276;28;20043;-74
2022/06/14 05:47:13;;;;;;;17.05;9.15;;;18.40;99.90;;;;;;5094102;28;20096;-74
2022/06/14 05:49:46;;;;;;;11.73;3.63;;;18.40;99.90;;;;;;5094182;28;20075;-76
2022/06/14 05:52:19;;;;;;;9.23;5.07;;;18.50;99.90;;;;;;5094229;28;20044;-75
2022/06/14 05:54:50;;;;;;;8.63;3.95;;;18.50;99.90;;;;;;5094990;28;20495;-75
2022/06/14 05:57:23;;;;;;;7.95;4.18;;;18.50;99.90;;;;;;5100751;28;20142;-75
2022/06/14 05:59:55;;;;;;;9.50;4.05;;;18.50;99.90;;;;;;5100771;28;20062;-74
2022/06/14 06:02:30;;;;;;;10.60;4.32;;;18.50;99.90;;;;;;5095120;28;20051;-75
2022/06/14 06:05:02;;;;;;;10.70;4.88;;;18.50;99.90;;;;;;5076789;28;20053;-75
2022/06/14 06:07:34;;;;;;;12.50;5.63;;;18.50;99.90;;;;;;5095154;28;20441;-76
2022/06/14 06:10:10;;;;;;;9.90;6.53;;;18.40;99.90;;;;;;5094426;28;20043;-76
2022/06/14 06:12:41;;;;;;;12.10;6.03;;;18.60;99.90;;;;;;5094163;28;20044;-75
2022/06/14 06:15:15;;;;;;;10.93;4.57;;;18.60;99.90;;;;;;5094032;28;20048;-74
2022/06/14 06:17:48;;;;;;;8.80;4.35;;;18.70;99.90;;;;;;5094108;28;20040;-72
2022/06/14 06:20:27;;;;;;;8.13;4.63;;;18.80;99.90;;;;;;5094549;28;20487;-73
2022/06/14 06:22:59;;;;;;;7.63;3.97;;;19.00;99.90;;;;;;5094311;28;20035;-74
2022/06/14 06:25:31;;;;;;;12.88;4.95;;;19.00;99.90;;;;;;5093742;28;20043;-74
2022/06/14 06:28:06;;;;;;;11.32;6.10;;;19.10;99.90;;;;;;5094140;28;20130;-73
2022/06/14 06:30:38;;;;;;;8.70;4.95;;;19.20;99.90;;;;;;5070993;28;20051;-73
2022/06/14 06:33:10;;;;;;;11.45;4.55;;;19.10;99.90;;;;;;5099573;28;20040;-73
2022/06/14 06:35:45;;;;;;;58.10;10.73;;;19.10;99.90;;;;;;5094959;28;20455;-73
2022/06/14 06:38:18;;;;;;;11.23;6.03;;;19.10;99.90;;;;;;5085034;28;20047;-73
2022/06/14 06:43:35;;;;;;;11.23;4.75;;;19.40;99.90;;;;;;5072252;28;20041;-74
2022/06/14 06:46:09;;;;;;;9.57;3.88;;;19.60;99.90;;;;;;5079209;28;20077;-73
2022/06/14 06:48:43;;;;;;;5.93;3.35;;;20.00;99.90;;;;;;5075861;28;20040;-74
2022/06/14 06:51:18;;;;;;;7.00;3.60;;;20.40;99.90;;;;;;5092052;28;20044;-74
2022/06/14 06:53:53;;;;;;;8.75;5.10;;;20.90;99.90;;;;;;5098821;28;20044;-73
2022/06/14 06:56:26;;;;;;;6.03;3.07;;;21.30;99.90;;;;;;5096965;28;20036;-74
2022/06/14 06:58:56;;;;;;;6.85;4.20;;;21.50;99.90;;;;;;5093951;28;20048;-73
2022/06/14 07:01:26;;;;;;;8.85;4.70;;;21.90;99.90;;;;;;5094384;28;20078;-74
2022/06/14 07:04:01;;;;;;;8.57;3.58;;;22.20;99.90;;;;;;5094626;28;20043;-74
2022/06/14 07:06:30;;;;;;;7.30;4.20;;;22.50;99.90;;;;;;5095413;28;20066;-73
2022/06/14 07:09:02;;;;;;;7.22;4.57;;;22.60;99.90;;;;;;5094155;28;20071;-74
2022/06/14 07:11:34;;;;;;;8.60;4.38;;;22.70;99.90;;;;;;5093209;28;20487;-74
2022/06/14 07:14:10;;;;;;;6.15;3.80;;;22.60;99.90;;;;;;5094516;28;20093;-74
2022/06/14 07:16:44;;;;;;;7.85;3.75;;;22.70;99.90;;;;;;5079301;28;20071;-73
2022/06/14 07:19:23;;;;;;;7.13;3.83;;;22.80;99.90;;;;;;5097034;28;20453;-74
2022/06/14 07:21:57;;;;;;;8.45;3.80;;;23.10;99.90;;;;;;5097101;28;20036;-74
2022/06/14 07:24:29;;;;;;;14.63;4.75;;;23.10;99.90;;;;;;5078758;28;20081;-74
2022/06/14 07:27:04;;;;;;;10.35;4.40;;;23.10;99.90;;;;;;5097340;28;20048;-74
2022/06/14 07:29:36;;;;;;;12.98;5.45;;;22.90;99.90;;;;;;5097076;28;20075;-74
2022/06/14 07:32:09;;;;;;;13.40;4.97;;;22.50;99.90;;;;;;5097063;28;20078;-74
2022/06/14 07:34:38;;;;;;;8.68;5.00;;;22.60;99.90;;;;;;5096880;28;20048;-75
2022/06/14 07:37:12;;;;;;;9.25;5.40;;;22.70;99.90;;;;;;5079330;28;20131;-74
2022/06/14 07:39:50;;;;;;;9.90;5.13;;;22.60;99.90;;;;;;5098862;28;20052;-73
2022/06/14 07:42:22;;;;;;;12.75;5.93;;;22.70;99.90;;;;;;5100398;28;20040;-74
2022/06/14 07:44:56;;;;;;;9.95;5.63;;;23.10;99.90;;;;;;5104914;28;20116;-74
2022/06/14 07:47:31;;;;;;;11.93;4.85;;;23.60;99.90;;;;;;5107623;28;20060;-73
2022/06/14 07:50:07;;;;;;;10.45;6.05;;;23.80;99.90;;;;;;5109491;28;20048;-74
2022/06/14 07:52:37;;;;;;;6.82;3.42;;;23.80;99.90;;;;;;5079566;28;20044;-74
2022/06/14 07:55:11;;;;;;;8.20;4.40;;;24.20;99.90;;;;;;5098548;28;20380;-74
2022/06/14 07:57:42;;;;;;;8.50;4.40;;;24.30;99.90;;;;;;5098370;28;20047;-74
2022/06/14 08:03:05;;;;;;;10.20;2.65;;;25.60;99.90;;;;;;5078843;28;20067;-74
2022/06/14 08:05:38;;;;;;;7.45;2.72;;;25.50;99.90;;;;;;5096874;28;20043;-74
2022/06/14 08:08:08;;;;;;;9.25;2.72;;;25.10;99.90;;;;;;5097431;28;20114;-73
2022/06/14 08:10:42;;;;;;;6.32;2.30;;;24.80;99.90;;;;;;5097490;28;20044;-73
2022/06/14 08:13:14;;;;;;;6.13;2.80;;;24.30;99.90;;;;;;5096850;28;20486;-74
2022/06/14 08:15:45;;;;;;;8.35;3.97;;;24.20;99.90;;;;;;5095615;28;20044;-73
2022/06/14 08:18:18;;;;;;;10.77;4.38;;;24.00;99.90;;;;;;5095616;28;20110;-73
2022/06/14 08:20:51;;;;;;;5.53;3.03;;;24.30;99.90;;;;;;5096000;28;20554;-73
2022/06/14 08:23:25;;;;;;;6.78;3.22;;;24.90;99.90;;;;;;5096158;28;20046;-75
2022/06/14 08:25:59;;;;;;;7.78;3.47;;;25.60;99.90;;;;;;5095607;28;20044;-74
2022/06/14 08:28:30;;;;;;;8.88;5.15;;;25.90;99.90;;;;;;5096179;28;20285;-74
2022/06/14 08:31:02;;;;;;;10.50;3.67;;;26.00;99.90;;;;;;5102091;28;20047;-74
2022/06/14 08:33:36;;;;;;;6.50;3.35;;;25.90;99.90;;;;;;5078386;28;20473;-74
2022/06/14 08:36:09;;;;;;;11.65;5.05;;;25.70;99.90;;;;;;5095760;28;20032;-73
2022/06/14 08:38:41;;;;;;;9.90;3.47;;;25.40;99.90;;;;;;5099819;28;20040;-74
2022/06/14 08:41:22;;;;;;;7.97;3.20;;;24.90;99.90;;;;;;5106147;28;20039;-74
2022/06/14 08:43:53;;;;;;;5.47;2.85;;;25.00;99.90;;;;;;5076005;28;20518;-73
2022/06/14 08:46:27;;;;;;;6.53;2.75;;;25.00;99.90;;;;;;5082167;22;20052;-74
2022/06/14 08:49:10;;;;;;;7.20;2.80;;;25.10;99.90;;;;;;5068151;28;20110;-74
2022/06/14 08:51:59;;;;;;;9.32;4.20;;;25.30;99.90;;;;;;5065771;28;20037;-74
2022/06/14 08:54:41;;;;;;;5.65;2.70;;;25.50;99.90;;;;;;5075354;28;20129;-75
2022/06/14 08:57:32;;;;;;;2.45;1.70;;;25.40;99.90;;;;;;5076801;28;20128;-74
2022/06/14 09:00:11;;;;;;;4.20;2.45;;;24.50;99.90;;;;;;5058100;28;20366;-73
2022/06/14 09:03:15;;;;;;;7.57;2.20;;;24.30;99.90;;;;;;5075286;28;20063;-74
2022/06/14 09:06:26;;;;;;;7.90;3.40;;;24.40;99.90;;;;;;5071283;28;20109;-74
2022/06/14 09:09:18;;;;;;;266.23;39.53;;;24.50;99.90;;;;;;5074824;28;20041;-73
2022/06/14 09:12:37;;;;;;;15.23;3.45;;;24.80;99.90;;;;;;5074691;28;20044;-74
2022/06/14 09:15:52;;;;;;;8.55;3.08;;;25.10;99.90;;;;;;5056419;28;20406;-74
2022/06/14 09:18:38;;;;;;;4.90;2.85;;;25.10;99.90;;;;;;5022613;28;20048;-74
2022/06/14 09:21:16;;;;;;;8.52;4.70;;;24.90;99.90;;;;;;5074488;28;20040;-73
2022/06/14 09:24:04;;;;;;;6.57;3.42;;;24.70;99.90;;;;;;5073857;28;20040;-74
2022/06/14 09:26:53;;;;;;;8.98;2.40;;;24.50;99.90;;;;;;5073729;28;20051;-75
2022/06/14 09:29:53;;;;;;;4.85;3.15;;;24.40;99.90;;;;;;5053902;28;20117;-75
2022/06/14 09:33:14;;;;;;;7.40;3.75;;;24.20;99.90;;;;;;5053975;28;20037;-75
2022/06/14 09:36:32;;;;;;;3.78;1.92;;;24.20;99.90;;;;;;5053756;28;20077;-75
2022/06/14 09:39:22;;;;;;;9.55;3.83;;;24.30;99.90;;;;;;4956662;28;20105;-75
2022/06/14 09:42:23;;;;;;;14.48;8.95;;;24.40;99.90;;;;;;5047848;28;20057;-75
2022/06/14 09:45:35;;;;;;;6.65;3.28;;;24.60;99.90;;;;;;5050897;28;20513;-74
2022/06/14 09:48:20;;;;;;;7.88;3.72;;;24.80;99.20;;;;;;5027794;28;20060;-74
2022/06/14 09:51:15;;;;;;;5.55;2.00;;;24.80;99.50;;;;;;5053317;28;20067;-74
2022/06/14 09:54:25;;;;;;;4.10;1.80;;;24.50;98.10;;;;;;5052936;28;20054;-74
2022/06/14 09:57:15;;;;;;;7.32;5.07;;;24.50;99.90;;;;;;5052713;28;20037;-74
2022/06/14 10:00:09;;;;;;;5.72;3.75;;;24.30;98.60;;;;;;5053126;28;20447;-75
2022/06/14 10:03:04;;;;;;;4.07;1.60;;;24.10;98.90;;;;;;5052141;28;20143;-75
2022/06/14 10:05:44;;;;;;;7.50;2.22;;;24.20;99.90;;;;;;5057586;28;20048;-74
2022/06/14 10:08:29;;;;;;;6.65;2.42;;;24.20;99.90;;;;;;5052675;28;20071;-74
2022/06/14 10:11:10;;;;;;;2.88;1.40;;;24.30;99.90;;;;;;5034325;28;20079;-75
2022/06/14 10:14:10;;;;;;;6.00;2.10;;;24.30;97.90;;;;;;5052478;28;20076;-75
2022/06/14 10:17:10;;;;;;;3.92;2.25;;;24.30;97.50;;;;;;5049042;28;20500;-73
2022/06/14 10:20:13;;;;;;;6.78;2.90;;;24.50;97.90;;;;;;5052932;28;20519;-73
2022/06/14 10:22:55;;;;;;;7.05;3.10;;;24.60;99.60;;;;;;5035771;28;20045;-74
2022/06/14 10:25:31;;;;;;;4.65;2.25;;;24.90;99.90;;;;;;5054496;28;20507;-75
2022/06/14 10:28:13;;;;;;;5.05;2.13;;;25.20;98.00;;;;;;5062906;28;20044;-75
2022/06/14 10:30:53;;;;;;;2.85;1.70;;;25.10;97.50;;;;;;5074093;28;20044;-75
2022/06/14 10:33:43;;;;;;;5.97;3.05;;;25.20;98.10;;;;;;5073731;28;20448;-75
2022/06/14 10:36:46;;;;;;;4.50;1.80;;;25.10;98.70;;;;;;5073410;28;20394;-75
2022/06/14 10:39:54;;;;;;;6.75;2.38;;;25.10;99.80;;;;;;5071184;28;20437;-75
2022/06/14 10:42:29;;;;;;;3.90;1.40;;;25.10;98.20;;;;;;5070500;28;20036;-75
2022/06/14 10:45:02;;;;;;;4.28;2.10;;;25.00;97.00;;;;;;5074502;28;20106;-75
2022/06/14 10:47:50;;;;;;;6.07;2.47;;;25.10;99.90;;;;;;5076328;28;20090;-75
2022/06/14 10:50:47;;;;;;;6.20;2.28;;;25.20;96.40;;;;;;5080187;28;20430;-75
2022/06/14 10:53:25;;;;;;;4.35;2.20;;;25.30;99.00;;;;;;5072777;28;20049;-73
2022/06/14 10:56:23;;;;;;;3.72;1.73;;;25.40;95.80;;;;;;5078310;28;20098;-74
2022/06/14 10:59:17;;;;;;;3.95;1.73;;;25.60;96.00;;;;;;5051980;28;20495;-74
2022/06/14 11:01:53;;;;;;;2.90;1.58;;;25.10;91.00;;;;;;5039244;28;20068;-74
2022/06/14 11:04:31;;;;;;;4.13;1.83;;;25.10;92.80;;;;;;5061219;28;20045;-74
2022/06/14 11:07:27;;;;;;;5.45;2.28;;;25.00;99.60;;;;;;5064263;28;20048;-74
2022/06/14 11:10:23;;;;;;;5.17;2.63;;;24.90;99.90;;;;;;5056854;28;20040;-74
2022/06/14 11:13:00;;;;;;;2.70;1.70;;;25.00;99.90;;;;;;5070737;28;20430;-76
2022/06/14 11:15:36;;;;;;;6.53;2.20;;;25.20;99.10;;;;;;5073312;28;20036;-75
2022/06/14 11:18:25;;;;;;;5.25;3.55;;;25.40;95.40;;;;;;5075854;28;20418;-75
2022/06/14 11:21:01;;;;;;;3.75;2.00;;;25.50;99.90;;;;;;5061519;28;20450;-73
2022/06/14 11:23:36;;;;;;;3.30;1.60;;;24.60;99.90;;;;;;5076044;28;20047;-74
2022/06/14 11:26:10;;;;;;;3.72;1.88;;;24.30;94.30;;;;;;5075874;28;20045;-74
2022/06/14 11:28:45;;;;;;;4.72;1.70;;;24.10;93.10;;;;;;5076393;28;20040;-73
2022/06/14 11:31:20;;;;;;;3.95;1.90;;;24.10;97.40;;;;;;5078709;28;20044;-74
2022/06/14 11:34:16;;;;;;;4.13;1.80;;;24.20;99.40;;;;;;5075835;28;20499;-74
2022/06/14 11:36:59;;;;;;;5.07;2.33;;;24.50;99.90;;;;;;5075919;28;20055;-75
2022/06/14 11:39:35;;;;;;;6.05;2.10;;;24.30;99.70;;;;;;5077428;28;20063;-74
2022/06/14 11:42:07;;;;;;;3.38;1.63;;;24.50;96.90;;;;;;5075903;28;20041;-74
2022/06/14 11:45:07;;;;;;;4.35;1.60;;;24.40;96.50;;;;;;5058054;28;20052;-74
2022/06/14 11:47:42;;;;;;;3.70;1.90;;;24.30;94.30;;;;;;5074940;28;20052;-73
2022/06/14 11:50:17;;;;;;;3.60;1.67;;;24.30;93.30;;;;;;5058873;28;20048;-74
2022/06/14 11:53:09;;;;;;;4.13;1.70;;;24.20;99.90;;;;;;5075312;28;20044;-74
2022/06/14 11:55:40;;;;;;;3.65;1.75;;;24.00;96.90;;;;;;5076029;28;20036;-73
2022/06/14 11:58:13;;;;;;;4.82;2.30;;;24.10;99.90;;;;;;5057757;28;20446;-75
2022/06/14 12:00:53;;;;;;;3.50;1.98;;;24.50;93.60;;;;;;5066705;28;20040;-74
2022/06/14 12:03:46;;;;;;;6.20;3.20;;;24.80;99.90;;;;;;5056789;28;20048;-74
2022/06/14 12:06:30;;;;;;;19.10;14.07;;;25.00;99.90;;;;;;5058545;28;20053;-75
2022/06/14 12:09:37;;;;;;;6.18;3.20;;;25.30;99.90;;;;;;5074958;28;20044;-75
2022/06/14 12:12:17;;;;;;;5.05;2.08;;;25.20;99.90;;;;;;4984720;28;20577;-74
2022/06/14 12:14:57;;;;;;;5.95;1.80;;;25.00;99.90;;;;;;5075214;28;20049;-75
2022/06/14 12:17:30;;;;;;;7.43;2.10;;;24.90;98.80;;;;;;5075659;28;20048;-76
2022/06/14 12:20:05;;;;;;;4.95;2.08;;;24.60;97.50;;;;;;5056682;28;20053;-75
2022/06/14 12:22:44;;;;;;;4.73;3.33;;;24.70;94.10;;;;;;5074205;28;20032;-75
2022/06/14 12:28:08;;;;;;;3.20;1.65;;;25.00;95.40;;;;;;5073250;28;20506;-74
2022/06/14 12:30:37;;;;;;;7.73;2.47;;;24.70;94.00;;;;;;5075074;28;20379;-76
2022/06/14 12:33:11;;;;;;;6.22;2.00;;;24.80;98.90;;;;;;5074507;28;20045;-74
2022/06/14 12:35:45;;;;;;;5.93;1.90;;;24.80;92.10;;;;;;5055952;28;20442;-76
2022/06/14 12:38:18;;;;;;;4.38;2.10;;;24.90;95.20;;;;;;5065834;28;20501;-75
2022/06/14 12:40:51;;;;;;;3.80;1.95;;;24.80;95.90;;;;;;5073877;28;20044;-73
2022/06/14 12:43:22;;;;;;;10.68;2.97;;;24.70;90.70;;;;;;5073945;28;20044;-74
2022/06/14 12:45:54;;;;;;;4.25;2.03;;;24.80;93.50;;;;;;5073357;28;20491;-75
2022/06/14 12:48:36;;;;;;;6.45;2.08;;;24.80;94.10;;;;;;5071808;28;20055;-75
2022/06/14 12:51:10;;;;;;;5.47;2.45;;;24.60;96.80;;;;;;5074511;28;20071;-75
2022/06/14 12:53:43;;;;;;;6.35;2.40;;;24.70;98.30;;;;;;5073687;28;20044;-75
2022/06/14 12:56:14;;;;;;;10.40;2.60;;;24.90;94.30;;;;;;5068873;28;20098;-74
2022/06/14 12:58:52;;;;;;;5.45;2.42;;;25.10;90.90;;;;;;5054321;28;20041;-74
2022/06/14 13:01:29;;;;;;;3.42;2.00;;;25.30;93.60;;;;;;5054110;28;20048;-74
2022/06/14 13:04:04;;;;;;;5.53;1.83;;;25.30;95.40;;;;;;5054318;28;20045;-74
2022/06/14 13:06:54;;;;;;;4.05;2.08;;;25.30;94.10;;;;;;5073845;28;20117;-74
2022/06/14 13:09:33;;;;;;;6.95;2.50;;;25.30;93.00;;;;;;5074755;28;20040;-73
2022/06/14 13:12:12;;;;;;;9.00;2.95;;;25.10;97.40;;;;;;5071049;28;20352;-75
2022/06/14 13:14:48;;;;;;;6.13;2.70;;;25.20;93.50;;;;;;5073158;28;20162;-75
2022/06/14 13:17:33;;;;;;;6.78;2.20;;;25.30;92.50;;;;;;5073491;28;20052;-75
2022/06/14 13:20:10;;;;;;;6.15;2.83;;;25.30;94.60;;;;;;5073757;28;20467;-75
2022/06/14 13:22:52;;;;;;;5.10;2.40;;;25.30;99.00;;;;;;5073497;28;20070;-75
2022/06/14 13:25:57;;;;;;;6.13;2.88;;;25.10;93.20;;;;;;5073699;28;20169;-75
2022/06/14 13:28:44;;;;;;;5.53;2.53;;;25.00;93.20;;;;;;5065862;28;20567;-75
2022/06/14 13:31:27;;;;;;;6.15;3.80;;;25.10;84.20;;;;;;5052830;28;20037;-75
2022/06/14 13:34:06;;;;;;;6.50;3.85;;;25.10;85.90;;;;;;5068009;28;20099;-74
2022/06/14 13:36:43;;;;;;;9.25;3.25;;;25.10;86.30;;;;;;5063989;28;20048;-75
2022/06/14 13:39:19;;;;;;;4.60;1.70;;;25.20;90.80;;;;;;5074217;28;20036;-74
2022/06/14 13:42:01;;;;;;;6.18;2.20;;;25.10;78.90;;;;;;5073542;28;20106;-74
2022/06/14 13:44:35;;;;;;;5.68;2.30;;;25.00;78.90;;;;;;5054044;28;20040;-75
2022/06/14 13:47:07;;;;;;;5.22;2.00;;;24.90;86.10;;;;;;5073645;28;20080;-75
2022/06/14 13:49:41;;;;;;;5.57;2.30;;;24.90;79.80;;;;;;5067192;28;20032;-75
2022/06/14 13:52:16;;;;;;;8.02;4.00;;;25.10;85.10;;;;;;5063856;28;20036;-75